Time;durP1;ratioP1;P1;durP2;ratioP2;P2;SDS_P1;SDS_P2;PMS_P1;PMS_P2;Temp;Humidity;BMP_temperature;BMP_pressure;BME280_temperature;BME280_humidity;BME280_pressure;Samples;Min_cycle;Max_cycle;Signal;HPM_P1;HPM_P2
2023/05/13 00:00:14;;;;;;;2.75;2.65;;;;;;;9.84;100.00;95506.63;5064025;28;20033;-69
2023/05/13 00:02:39;;;;;;;5.38;3.30;;;;;;;9.75;100.00;95503.84;5050175;28;20582;-70
2023/05/13 00:05:05;;;;;;;6.13;3.00;;;;;;;9.67;100.00;95506.38;5051424;28;20029;-69
2023/05/13 00:07:30;;;;;;;3.30;3.10;;;;;;;9.63;100.00;95507.63;5045724;28;20037;-69
2023/05/13 00:09:55;;;;;;;3.92;3.30;;;;;;;9.63;100.00;95505.00;5044588;28;20111;-69
2023/05/13 00:12:21;;;;;;;3.20;3.00;;;;;;;9.65;100.00;95505.69;5046328;28;20115;-69
2023/05/13 00:14:47;;;;;;;4.07;3.78;;;;;;;9.63;100.00;95509.41;5051337;28;20032;-69
2023/05/13 00:17:12;;;;;;;3.33;3.13;;;;;;;9.64;100.00;95517.16;5050909;28;20033;-69
2023/05/13 00:19:38;;;;;;;4.85;3.17;;;;;;;9.63;100.00;95514.66;5053273;28;20028;-69
2023/05/13 00:22:04;;;;;;;4.20;3.90;;;;;;;9.60;100.00;95513.97;5054386;28;20025;-70
2023/05/13 00:24:29;;;;;;;3.05;2.92;;;;;;;9.63;100.00;95514.66;5056432;28;20021;-69
2023/05/13 00:26:54;;;;;;;2.95;2.75;;;;;;;9.59;100.00;95506.22;5049914;28;20091;-69
2023/05/13 00:29:20;;;;;;;3.35;2.55;;;;;;;9.57;100.00;95513.41;5049696;28;20503;-69
2023/05/13 00:31:45;;;;;;;2.60;2.42;;;;;;;9.54;100.00;95503.19;5051031;28;20025;-69
2023/05/13 00:34:11;;;;;;;2.50;2.38;;;;;;;9.49;100.00;95503.59;5059156;28;20084;-69
2023/05/13 00:36:36;;;;;;;2.90;2.70;;;;;;;9.45;100.00;95504.84;5053852;28;20033;-69
2023/05/13 00:39:02;;;;;;;3.53;2.40;;;;;;;9.47;100.00;95502.91;5066769;28;20053;-69
2023/05/13 00:41:30;;;;;;;2.70;2.45;;;;;;;9.46;100.00;95511.78;5056512;28;20553;-69
2023/05/13 00:43:56;;;;;;;2.97;2.78;;;;;;;9.48;100.00;95507.19;5053177;28;20059;-69
2023/05/13 00:46:23;;;;;;;4.10;3.00;;;;;;;9.48;100.00;95503.75;5053501;28;20017;-70
2023/05/13 00:48:49;;;;;;;4.10;2.90;;;;;;;9.46;100.00;95506.50;5049115;28;20033;-69
2023/05/13 00:51:15;;;;;;;3.00;2.80;;;;;;;9.48;100.00;95516.91;5053282;28;20036;-69
2023/05/13 00:53:41;;;;;;;3.90;3.50;;;;;;;9.45;100.00;95508.31;5053183;28;20048;-70
2023/05/13 00:56:07;;;;;;;4.55;3.70;;;;;;;9.41;100.00;95514.84;5036750;28;20040;-69
2023/05/13 00:58:33;;;;;;;5.25;3.80;;;;;;;9.39;100.00;95519.38;5051409;28;20036;-70
2023/05/13 01:01:25;;;;;;;4.43;3.80;;;;;;;9.34;100.00;95518.97;5048972;28;20033;-70
2023/05/13 01:04:09;;;;;;;2.78;2.58;;;;;;;9.44;100.00;95518.97;5049950;28;20042;-69
2023/05/13 01:06:56;;;;;;;7.93;2.50;;;;;;;9.39;100.00;95521.19;5053458;28;20108;-69
2023/05/13 01:09:32;;;;;;;4.22;2.40;;;;;;;9.38;100.00;95525.59;5053885;28;20406;-69
2023/05/13 01:12:06;;;;;;;2.47;2.38;;;;;;;9.36;100.00;95527.53;5056036;28;20473;-69
2023/05/13 01:14:41;;;;;;;3.88;2.40;;;;;;;9.35;100.00;95519.81;5049667;28;20025;-70
2023/05/13 01:17:30;;;;;;;6.77;2.57;;;;;;;9.36;100.00;95522.28;5049682;28;20025;-69
2023/05/13 01:19:59;;;;;;;2.83;2.20;;;;;;;9.39;100.00;95521.19;5050970;28;20828;-69
2023/05/13 01:22:25;;;;;;;6.13;2.40;;;;;;;9.37;100.00;95528.38;5061012;28;20039;-70
2023/05/13 01:24:50;;;;;;;2.70;2.50;;;;;;;9.35;100.00;95525.88;5044187;28;20033;-69
2023/05/13 01:27:16;;;;;;;2.50;2.38;;;;;;;9.36;100.00;95517.03;5053252;28;20029;-69
2023/05/13 01:29:42;;;;;;;4.20;2.30;;;;;;;9.34;100.00;95516.34;5048588;28;20017;-69
2023/05/13 01:32:09;;;;;;;2.58;2.38;;;;;;;9.31;100.00;95521.88;5063393;28;20096;-69
2023/05/13 01:34:37;;;;;;;2.83;2.58;;;;;;;9.28;100.00;95524.78;5052416;28;20029;-70
2023/05/13 01:37:03;;;;;;;3.92;2.60;;;;;;;9.25;100.00;95523.25;5049859;28;20028;-69
2023/05/13 01:39:30;;;;;;;3.60;2.75;;;;;;;9.27;100.00;95528.38;5050630;28;20053;-69
2023/05/13 01:41:56;;;;;;;5.68;3.05;;;;;;;9.30;100.00;95523.69;5056134;28;20037;-70
2023/05/13 01:44:21;;;;;;;3.10;2.90;;;;;;;9.33;100.00;95525.19;5034926;28;20028;-70
2023/05/13 01:46:49;;;;;;;2.90;2.70;;;;;;;9.35;100.00;95523.25;5045632;28;20021;-70
2023/05/13 01:49:15;;;;;;;3.40;3.00;;;;;;;9.35;100.00;95515.38;5050567;28;20025;-70
2023/05/13 01:51:40;;;;;;;3.45;3.25;;;;;;;9.35;100.00;95522.44;5049042;28;20021;-69
2023/05/13 01:54:06;;;;;;;7.57;3.92;;;;;;;9.35;100.00;95527.69;5069895;28;20017;-69
2023/05/13 01:56:31;;;;;;;3.97;3.67;;;;;;;9.36;100.00;95522.28;5053906;28;20017;-70
2023/05/13 01:58:57;;;;;;;7.70;4.22;;;;;;;9.36;100.00;95526.72;5048317;28;20566;-70
2023/05/13 02:01:22;;;;;;;4.95;4.20;;;;;;;9.35;100.00;95531.13;5049702;28;20052;-70
2023/05/13 02:03:48;;;;;;;6.57;4.13;;;;;;;9.32;100.00;95526.16;5049400;28;20466;-69
2023/05/13 02:06:13;;;;;;;7.60;4.47;;;;;;;9.34;100.00;95529.47;5047140;28;20112;-70
2023/05/13 02:08:41;;;;;;;6.40;4.65;;;;;;;9.30;100.00;95528.09;5052471;28;20404;-69
2023/05/13 02:11:07;;;;;;;7.47;5.90;;;;;;;9.28;100.00;95532.66;5047900;28;20017;-70
2023/05/13 02:13:32;;;;;;;4.60;4.15;;;;;;;9.24;100.00;95528.66;5050647;28;20477;-69
2023/05/13 02:15:58;;;;;;;5.55;4.72;;;;;;;9.24;100.00;95529.47;5060076;28;20029;-70
2023/05/13 02:18:23;;;;;;;4.85;4.55;;;;;;;9.24;100.00;95532.09;5052951;28;20375;-69
2023/05/13 02:20:49;;;;;;;6.30;4.45;;;;;;;9.26;100.00;95530.16;5053438;28;20045;-69
2023/05/13 02:23:16;;;;;;;5.00;4.50;;;;;;;9.26;100.00;95531.97;5068884;28;20544;-70
2023/05/13 02:25:42;;;;;;;5.10;4.70;;;;;;;9.23;100.00;95532.25;5050636;28;20444;-69
2023/05/13 02:28:07;;;;;;;5.05;4.60;;;;;;;9.25;100.00;95538.19;5048882;28;20107;-69
2023/05/13 02:30:32;;;;;;;4.65;4.25;;;;;;;9.26;100.00;95534.59;5050481;28;20020;-69
2023/05/13 02:32:59;;;;;;;4.45;4.15;;;;;;;9.25;100.00;95540.81;5051673;28;20029;-69
2023/05/13 02:35:28;;;;;;;4.25;3.95;;;;;;;9.23;100.00;95532.25;5053683;28;20025;-69
2023/05/13 02:37:53;;;;;;;4.07;3.85;;;;;;;9.24;100.00;95534.72;5052988;28;20021;-69
2023/05/13 02:40:19;;;;;;;5.47;5.15;;;;;;;9.21;100.00;95531.56;5053328;28;20671;-69
2023/05/13 02:42:44;;;;;;;4.53;4.13;;;;;;;9.20;100.00;95535.16;5053182;28;20032;-69
2023/05/13 02:45:10;;;;;;;4.65;4.03;;;;;;;9.23;100.00;95542.75;5052622;28;20095;-69
2023/05/13 02:47:36;;;;;;;4.05;3.67;;;;;;;9.25;100.00;95538.19;5048164;28;20025;-70
2023/05/13 02:50:04;;;;;;;4.53;3.88;;;;;;;9.28;100.00;95535.28;5067748;28;20428;-69
2023/05/13 02:52:30;;;;;;;4.78;3.72;;;;;;;9.28;100.00;95538.75;5049943;28;20604;-69
2023/05/13 02:54:55;;;;;;;3.88;3.58;;;;;;;9.28;100.00;95537.91;5050745;28;20040;-69
2023/05/13 02:57:21;;;;;;;4.22;3.60;;;;;;;9.26;100.00;95542.47;5049178;28;20028;-69
2023/05/13 02:59:46;;;;;;;4.25;3.85;;;;;;;9.28;100.00;95537.91;5047278;28;20074;-69
2023/05/13 03:02:11;;;;;;;4.20;3.67;;;;;;;9.28;100.00;95537.91;5053874;28;20032;-70
2023/05/13 03:04:37;;;;;;;4.07;3.72;;;;;;;9.27;100.00;95536.25;5052480;28;20029;-69
2023/05/13 03:07:02;;;;;;;4.05;3.50;;;;;;;9.26;100.00;95537.22;5051244;28;20029;-70
2023/05/13 03:09:28;;;;;;;4.72;3.65;;;;;;;9.28;100.00;95541.38;5053176;28;20049;-70
2023/05/13 03:11:53;;;;;;;3.85;3.40;;;;;;;9.29;100.00;95550.94;5054752;28;20096;-69
2023/05/13 03:14:19;;;;;;;4.22;3.80;;;;;;;9.29;100.00;95542.19;5048807;28;20068;-69
2023/05/13 03:16:44;;;;;;;3.72;3.33;;;;;;;9.28;100.00;95546.63;5052746;28;20033;-69
2023/05/13 03:19:10;;;;;;;3.70;3.50;;;;;;;9.28;100.00;95544.00;5047634;28;20032;-69
2023/05/13 03:21:35;;;;;;;4.45;3.70;;;;;;;9.26;100.00;95543.28;5054942;28;20055;-69
2023/05/13 03:24:01;;;;;;;7.60;3.63;;;;;;;9.34;100.00;95547.88;5066723;28;20521;-69
2023/05/13 03:26:26;;;;;;;4.13;3.70;;;;;;;9.43;100.00;95543.59;5051318;28;20119;-69
2023/05/13 03:28:51;;;;;;;3.78;3.50;;;;;;;9.36;100.00;95547.75;5052602;28;20021;-69
2023/05/13 03:31:17;;;;;;;4.20;3.80;;;;;;;9.26;100.00;95553.00;5051306;28;20024;-70
2023/05/13 03:33:42;;;;;;;6.13;3.50;;;;;;;9.25;100.00;95549.50;5046541;28;20021;-69
2023/05/13 03:36:08;;;;;;;7.95;3.97;;;;;;;9.34;100.00;95554.94;5049964;28;20489;-69
2023/05/13 03:38:33;;;;;;;5.38;3.92;;;;;;;9.32;100.00;95549.81;5063172;28;20021;-70
2023/05/13 03:40:59;;;;;;;4.88;3.55;;;;;;;9.30;100.00;95555.22;5053137;28;20043;-69
2023/05/13 03:43:24;;;;;;;3.65;3.45;;;;;;;9.28;100.00;95556.31;5052685;28;20111;-69
2023/05/13 03:45:50;;;;;;;5.90;4.43;;;;;;;9.27;100.00;95554.66;5051372;28;20507;-70
2023/05/13 03:48:16;;;;;;;5.55;4.10;;;;;;;9.22;100.00;95552.41;5050952;28;20024;-70
2023/05/13 03:50:41;;;;;;;4.38;4.07;;;;;;;9.21;100.00;95555.19;5054979;28;20409;-70
2023/05/13 03:53:07;;;;;;;4.25;3.90;;;;;;;9.20;100.00;95556.97;5052536;28;20036;-70
2023/05/13 03:55:32;;;;;;;4.45;4.15;;;;;;;9.20;100.00;95564.06;5055263;28;20105;-69
2023/05/13 03:57:58;;;;;;;4.10;3.80;;;;;;;9.21;100.00;95560.47;5052502;28;20033;-70
2023/05/13 04:00:23;;;;;;;4.60;4.18;;;;;;;9.20;100.00;95564.88;5039590;28;20517;-70
2023/05/13 04:02:49;;;;;;;4.43;4.05;;;;;;;9.21;100.00;95561.28;5053190;28;20036;-70
2023/05/13 04:05:14;;;;;;;4.38;4.07;;;;;;;9.25;100.00;95561.84;5068463;28;20055;-70
2023/05/13 04:07:40;;;;;;;3.83;3.63;;;;;;;9.30;100.00;95565.72;5057266;28;20032;-70
2023/05/13 04:10:06;;;;;;;4.15;3.80;;;;;;;9.28;100.00;95564.19;5053315;28;20032;-70
2023/05/13 04:12:36;;;;;;;3.80;3.50;;;;;;;9.30;100.00;95564.88;5052826;28;20485;-70
2023/05/13 04:15:02;;;;;;;3.58;3.33;;;;;;;9.22;100.00;95562.94;5052719;28;20056;-70
2023/05/13 04:17:27;;;;;;;5.35;4.03;;;;;;;9.17;100.00;95566.00;5065269;28;20063;-70
2023/05/13 04:19:53;;;;;;;4.00;3.70;;;;;;;9.17;100.00;95567.78;5053503;28;20028;-70
2023/05/13 04:22:20;;;;;;;6.63;4.03;;;;;;;9.16;100.00;95572.19;5051335;28;20025;-70
2023/05/13 04:24:46;;;;;;;6.50;4.70;;;;;;;9.15;100.00;95575.78;5056037;28;20017;-70
2023/05/13 04:27:11;;;;;;;4.72;4.10;;;;;;;9.13;100.00;95572.44;5049035;28;20025;-70
2023/05/13 04:29:36;;;;;;;4.05;3.72;;;;;;;9.12;100.00;95570.78;5072018;28;20275;-70
2023/05/13 04:32:05;;;;;;;3.92;3.58;;;;;;;9.13;100.00;95566.38;5050035;28;20104;-70
2023/05/13 04:34:30;;;;;;;4.53;3.60;;;;;;;9.15;100.00;95581.03;5045297;28;20052;-70
2023/05/13 04:36:56;;;;;;;4.00;3.65;;;;;;;9.16;100.00;95582.69;5050545;28;20025;-70
2023/05/13 04:39:21;;;;;;;4.53;4.10;;;;;;;9.18;100.00;95585.19;5071402;28;20049;-70
2023/05/13 04:41:46;;;;;;;4.10;3.78;;;;;;;9.19;100.00;95588.66;5057622;28;20083;-70
2023/05/13 04:44:12;;;;;;;4.30;3.90;;;;;;;9.19;100.00;95583.41;5054811;28;20028;-70
2023/05/13 04:46:39;;;;;;;4.88;3.80;;;;;;;9.21;100.00;95594.59;5054481;28;20104;-70
2023/05/13 04:49:04;;;;;;;5.15;3.50;;;;;;;9.23;100.00;95595.28;5052513;28;20047;-70
2023/05/13 04:51:31;;;;;;;4.57;4.25;;;;;;;9.29;100.00;95597.38;5050206;28;20030;-70
2023/05/13 04:53:56;;;;;;;3.88;3.67;;;;;;;9.28;100.00;95598.34;5056155;28;20075;-70
2023/05/13 04:56:22;;;;;;;3.97;3.67;;;;;;;9.27;100.00;95601.94;5052430;28;20021;-69
2023/05/13 04:58:47;;;;;;;4.35;3.95;;;;;;;9.29;100.00;95603.47;5049982;28;20520;-70
2023/05/13 05:01:16;;;;;;;3.80;3.55;;;;;;;9.33;100.00;95596.13;5051439;28;20030;-70
2023/05/13 05:03:41;;;;;;;6.32;3.63;;;;;;;9.35;100.00;95599.44;5051102;28;20072;-70
2023/05/13 05:06:06;;;;;;;4.10;3.40;;;;;;;9.38;100.00;95596.53;5053636;28;20571;-69
2023/05/13 05:08:32;;;;;;;6.88;3.70;;;;;;;9.41;100.00;95601.53;5052424;28;20025;-69
2023/05/13 05:10:59;;;;;;;3.70;3.50;;;;;;;9.42;100.00;95607.63;5053122;28;20055;-69
2023/05/13 05:13:25;;;;;;;3.30;3.10;;;;;;;9.51;100.00;95603.34;5051883;28;20048;-69
2023/05/13 05:15:50;;;;;;;4.80;4.40;;;;;;;9.62;100.00;95605.00;5055583;28;20032;-69
2023/05/13 05:18:15;;;;;;;5.53;4.80;;;;;;;9.63;100.00;95602.25;5056266;28;20107;-69
2023/05/13 05:20:41;;;;;;;7.85;4.03;;;;;;;9.65;100.00;95607.34;5053968;28;20032;-68
2023/05/13 05:23:07;;;;;;;5.50;4.13;;;;;;;9.73;100.00;95608.31;5050828;28;20017;-69
2023/05/13 05:25:33;;;;;;;5.32;4.97;;;;;;;9.87;100.00;95604.44;5056507;28;20059;-69
2023/05/13 05:27:58;;;;;;;5.15;4.82;;;;;;;9.66;100.00;95603.75;5054882;28;20423;-69
2023/05/13 05:30:24;;;;;;;5.15;4.57;;;;;;;9.65;100.00;95602.09;5068131;28;20022;-69
2023/05/13 05:32:49;;;;;;;5.45;5.05;;;;;;;9.60;100.00;95611.22;5054276;28;20024;-69
2023/05/13 05:35:15;;;;;;;6.28;5.10;;;;;;;9.63;100.00;95612.75;5056584;28;20039;-69
2023/05/13 05:37:41;;;;;;;5.32;4.88;;;;;;;9.62;100.00;95611.09;5050646;28;20024;-69
2023/05/13 05:40:07;;;;;;;5.35;4.38;;;;;;;9.63;100.00;95606.66;5052016;28;20509;-69
2023/05/13 05:42:32;;;;;;;4.65;4.35;;;;;;;9.64;100.00;95614.41;5053362;28;20021;-69
2023/05/13 05:44:57;;;;;;;4.78;4.38;;;;;;;9.67;100.00;95616.78;5051537;28;20025;-69
2023/05/13 05:47:23;;;;;;;5.15;4.75;;;;;;;9.71;100.00;95618.16;5048099;28;20032;-69
2023/05/13 05:49:48;;;;;;;5.28;4.07;;;;;;;9.80;100.00;95618.28;5045693;28;20102;-69
2023/05/13 05:52:17;;;;;;;5.03;4.57;;;;;;;9.84;100.00;95619.69;5070937;28;20021;-69
2023/05/13 05:54:42;;;;;;;5.10;4.60;;;;;;;9.89;100.00;95622.72;5054731;28;20029;-69
2023/05/13 05:57:07;;;;;;;7.47;5.38;;;;;;;9.95;100.00;95619.53;5052941;28;20055;-69
2023/05/13 05:59:33;;;;;;;5.63;5.13;;;;;;;10.08;100.00;95621.03;5046352;28;20021;-69
2023/05/13 06:01:58;;;;;;;4.95;4.47;;;;;;;10.22;100.00;95622.41;5055718;28;20029;-69
2023/05/13 06:04:24;;;;;;;4.72;4.20;;;;;;;10.55;100.00;95628.16;5056112;28;20032;-69
2023/05/13 06:06:49;;;;;;;3.95;3.47;;;;;;;10.47;100.00;95623.59;5055410;28;20056;-69
2023/05/13 06:09:15;;;;;;;4.28;3.97;;;;;;;10.48;100.00;95625.25;5054039;28;20025;-69
2023/05/13 06:11:40;;;;;;;3.90;3.70;;;;;;;10.57;100.00;95634.09;5057330;28;20028;-69
2023/05/13 06:14:05;;;;;;;3.22;3.08;;;;;;;10.55;100.00;95628.16;5050636;28;20029;-69
2023/05/13 06:16:31;;;;;;;3.85;2.78;;;;;;;10.70;100.00;95628.50;5053133;28;20025;-70
2023/05/13 06:18:56;;;;;;;3.85;3.22;;;;;;;10.87;100.00;95627.75;5050180;28;20485;-69
2023/05/13 06:21:22;;;;;;;6.53;5.03;;;;;;;10.85;100.00;95634.97;5055132;28;20025;-70
2023/05/13 06:23:47;;;;;;;4.03;3.72;;;;;;;10.97;100.00;95632.19;5050207;28;20093;-70
2023/05/13 06:26:12;;;;;;;3.50;3.30;;;;;;;10.93;100.00;95638.69;5053351;28;20025;-70
2023/05/13 06:28:38;;;;;;;2.70;2.50;;;;;;;11.04;100.00;95639.31;5045823;28;20025;-70
2023/05/13 06:31:03;;;;;;;4.35;2.85;;;;;;;11.38;100.00;95640.53;5052250;28;20028;-70
2023/05/13 06:33:35;;;;;;;2.20;2.08;;;;;;;11.34;100.00;95639.16;5054219;28;20039;-70
2023/05/13 06:36:00;;;;;;;3.05;2.85;;;;;;;11.66;100.00;95640.50;5054013;28;20024;-70
2023/05/13 06:38:25;;;;;;;3.03;2.80;;;;;;;11.38;100.00;95639.72;5055347;28;20027;-69
2023/05/13 06:40:51;;;;;;;3.03;2.83;;;;;;;11.41;100.00;95640.25;5054521;28;20041;-70
2023/05/13 06:43:17;;;;;;;2.45;2.22;;;;;;;11.38;100.00;95639.72;5054583;28;20025;-70
2023/05/13 06:45:42;;;;;;;2.90;2.50;;;;;;;11.45;100.00;95636.34;5054444;28;20013;-70
2023/05/13 06:48:07;;;;;;;2.47;2.25;;;;;;;11.60;100.00;95641.06;5054742;28;20508;-70
2023/05/13 06:50:33;;;;;;;3.70;3.40;;;;;;;11.75;100.00;95639.59;5054320;28;20092;-70
2023/05/13 06:52:58;;;;;;;5.72;4.55;;;;;;;11.81;100.00;95639.97;5055057;28;20028;-70
2023/05/13 06:55:24;;;;;;;6.68;3.85;;;;;;;11.89;100.00;95638.22;5042257;28;20025;-71
2023/05/13 06:57:50;;;;;;;5.18;3.50;;;;;;;11.94;100.00;95637.78;5044519;28;20033;-71
2023/05/13 07:00:16;;;;;;;3.13;2.90;;;;;;;12.00;100.00;95650.34;5051800;28;20017;-71
2023/05/13 07:02:42;;;;;;;5.30;3.33;;;;;;;12.15;100.00;95650.66;5053677;28;20028;-70
2023/05/13 07:05:08;;;;;;;5.20;3.30;;;;;;;12.09;100.00;95653.13;5054422;28;20032;-71
2023/05/13 07:07:34;;;;;;;3.42;3.17;;;;;;;12.03;100.00;95652.72;5052157;28;20523;-70
2023/05/13 07:10:00;;;;;;;3.22;3.08;;;;;;;11.98;100.00;95649.69;5048371;28;20017;-70
2023/05/13 07:12:25;;;;;;;3.90;2.63;;;;;;;11.92;100.00;95645.03;5052195;28;20109;-71
2023/05/13 07:14:51;;;;;;;3.20;2.90;;;;;;;11.89;100.00;95653.25;5051022;28;20056;-71
2023/05/13 07:17:16;;;;;;;4.03;3.05;;;;;;;12.02;100.00;95656.34;5053878;28;20086;-72
2023/05/13 07:19:42;;;;;;;3.00;2.80;;;;;;;12.19;100.00;95653.84;5046560;28;20025;-71
2023/05/13 07:22:07;;;;;;;3.30;3.10;;;;;;;12.28;100.00;95647.66;5054421;28;20028;-70
2023/05/13 07:24:32;;;;;;;2.90;2.70;;;;;;;12.17;100.00;95651.38;5048568;28;20047;-71
2023/05/13 07:26:58;;;;;;;2.28;2.08;;;;;;;12.38;100.00;95652.00;5064930;28;20029;-70
2023/05/13 07:29:24;;;;;;;3.55;2.10;;;;;;;12.48;100.00;95646.63;5050869;28;20025;-70
2023/05/13 07:31:49;;;;;;;2.10;2.00;;;;;;;12.47;100.00;95661.63;5054387;28;20525;-71
2023/05/13 07:34:15;;;;;;;2.70;2.50;;;;;;;12.63;100.00;95657.44;5054839;28;20146;-71
2023/05/13 07:36:46;;;;;;;1.90;1.83;;;;;;;12.50;100.00;95656.06;5054636;28;20017;-71
2023/05/13 07:39:11;;;;;;;2.40;2.20;;;;;;;12.30;100.00;95652.78;5040353;28;20048;-70
2023/05/13 07:41:37;;;;;;;1.80;1.70;;;;;;;11.89;100.00;95650.59;5054682;28;20033;-71
2023/05/13 07:44:04;;;;;;;2.90;2.10;;;;;;;12.29;100.00;95648.47;5054159;28;20036;-71
2023/05/13 07:46:30;;;;;;;2.20;2.00;;;;;;;12.16;100.00;95655.00;5053582;28;20049;-70
2023/05/13 07:48:56;;;;;;;2.58;2.10;;;;;;;12.12;100.00;95656.25;5049939;28;20025;-70
2023/05/13 07:51:21;;;;;;;2.20;2.08;;;;;;;11.93;100.00;95648.47;5043578;28;20024;-70
2023/05/13 07:53:47;;;;;;;1.92;1.83;;;;;;;12.17;100.00;95651.38;5068735;28;20473;-71
2023/05/13 07:56:12;;;;;;;2.15;2.05;;;;;;;12.18;100.00;95646.91;5054377;28;20101;-71
2023/05/13 07:58:38;;;;;;;1.75;1.58;;;;;;;12.48;99.74;95644.81;5053195;28;20529;-71
2023/05/13 08:01:04;;;;;;;4.97;2.25;;;;;;;12.17;100.00;95646.09;5053561;28;20469;-72
2023/05/13 08:03:29;;;;;;;2.00;1.90;;;;;;;12.24;100.00;95641.00;5056018;28;20081;-70
2023/05/13 08:05:55;;;;;;;2.00;1.90;;;;;;;12.09;100.00;95643.38;5053649;28;20025;-70
2023/05/13 08:08:20;;;;;;;1.90;1.80;;;;;;;12.11;100.00;95651.16;5053824;28;20124;-70
2023/05/13 08:10:46;;;;;;;2.15;1.83;;;;;;;12.29;100.00;95640.56;5052455;28;20019;-70
2023/05/13 08:13:11;;;;;;;2.65;2.15;;;;;;;13.01;100.00;95639.50;5052979;28;20029;-70
2023/05/13 08:15:37;;;;;;;2.08;1.98;;;;;;;14.00;97.21;95645.06;5053196;28;20013;-70
2023/05/13 08:18:02;;;;;;;1.73;1.63;;;;;;;14.65;92.46;95644.34;5054021;28;20029;-70
2023/05/13 08:20:28;;;;;;;1.88;1.77;;;;;;;14.43;89.93;95646.72;5053272;28;20127;-70
2023/05/13 08:22:57;;;;;;;1.88;1.45;;;;;;;14.39;86.91;95650.69;5053674;28;20400;-70
2023/05/13 08:25:23;;;;;;;3.63;3.25;;;;;;;13.81;91.96;95650.66;5055516;28;20120;-70
2023/05/13 08:27:48;;;;;;;2.65;2.10;;;;;;;13.96;88.74;95645.56;5053338;28;20048;-71
2023/05/13 08:30:14;;;;;;;1.77;1.67;;;;;;;13.70;91.82;95649.16;5053483;28;20036;-70
2023/05/13 08:32:39;;;;;;;2.67;2.47;;;;;;;13.36;93.13;95650.84;5052304;28;20025;-71
2023/05/13 08:35:05;;;;;;;1.88;1.70;;;;;;;13.54;92.31;95642.84;5056924;28;20040;-71
2023/05/13 08:37:31;;;;;;;1.40;1.40;;;;;;;13.67;88.99;95647.66;5053510;28;20044;-71
2023/05/13 08:39:59;;;;;;;1.17;1.17;;;;;;;13.90;89.15;95649.69;5048222;28;20092;-71
2023/05/13 08:42:27;;;;;;;1.35;1.25;;;;;;;14.29;85.84;95651.69;5056702;28;20032;-71
2023/05/13 08:44:53;;;;;;;2.40;1.50;;;;;;;14.73;78.95;95647.03;5057267;28;20027;-70
2023/05/13 08:47:38;;;;;;;1.02;1.00;;;;;;;14.76;78.25;95646.69;5055702;28;20030;-70
2023/05/13 08:50:04;;;;;;;1.40;1.40;;;;;;;15.11;80.48;95649.88;5056323;28;20102;-71
2023/05/13 08:52:30;;;;;;;1.00;1.00;;;;;;;15.61;72.16;95655.81;5055422;28;20040;-71
2023/05/13 08:54:58;;;;;;;3.65;1.77;;;;;;;15.54;71.98;95654.88;5056628;28;20021;-71
2023/05/13 08:57:23;;;;;;;1.35;1.30;;;;;;;15.12;72.68;95654.19;5056537;28;20102;-71
2023/05/13 08:59:50;;;;;;;1.55;1.45;;;;;;;14.48;79.37;95657.66;5056878;28;20032;-72
2023/05/13 09:02:15;;;;;;;1.70;1.60;;;;;;;14.55;79.17;95661.28;5055780;28;20035;-71
2023/05/13 09:04:42;;;;;;;0.98;0.98;;;;;;;14.33;78.85;95660.13;5055137;28;20512;-70
2023/05/13 09:07:08;;;;;;;1.23;1.23;;;;;;;14.21;81.13;95664.91;5059303;28;20021;-70
2023/05/13 09:09:34;;;;;;;1.23;1.20;;;;;;;14.51;80.78;95664.41;5057741;28;20028;-71
2023/05/13 09:11:59;;;;;;;1.40;1.40;;;;;;;14.92;79.01;95660.88;5071653;28;20107;-70
2023/05/13 09:14:33;;;;;;;1.33;1.33;;;;;;;15.38;78.58;95655.78;5052494;28;20481;-70
2023/05/13 09:17:01;;;;;;;2.45;1.30;;;;;;;15.59;76.47;95657.81;5055047;28;20033;-71
2023/05/13 09:19:26;;;;;;;1.10;1.10;;;;;;;15.45;79.21;95654.06;5056659;28;20111;-71
2023/05/13 09:21:53;;;;;;;1.50;1.35;;;;;;;15.88;76.95;95655.50;5056211;28;20110;-71
2023/05/13 09:24:20;;;;;;;1.33;1.33;;;;;;;16.25;78.21;95655.75;5054382;28;20125;-71
2023/05/13 09:26:47;;;;;;;1.10;1.10;;;;;;;16.31;71.96;95649.72;5055073;28;20027;-71
2023/05/13 09:29:29;;;;;;;1.27;1.17;;;;;;;16.13;71.52;95652.69;5055387;28;20059;-70
2023/05/13 09:31:59;;;;;;;1.33;1.25;;;;;;;16.31;69.03;95650.56;5056481;28;20025;-71
2023/05/13 09:34:31;;;;;;;0.93;0.93;;;;;;;16.69;69.28;95643.56;5056969;28;20446;-70
2023/05/13 09:37:06;;;;;;;2.17;1.10;;;;;;;17.24;68.03;95646.84;5056718;28;20427;-71
2023/05/13 09:39:38;;;;;;;1.20;1.02;;;;;;;18.07;65.75;95644.91;5056092;28;20041;-71
2023/05/13 09:42:03;;;;;;;1.10;1.10;;;;;;;18.76;61.19;95646.91;5054825;28;20029;-71
2023/05/13 09:44:29;;;;;;;1.10;1.00;;;;;;;19.65;59.68;95642.88;5052617;28;20046;-71
2023/05/13 09:46:55;;;;;;;4.65;4.05;;;;;;;19.49;63.42;95636.88;5048388;28;20539;-71
2023/05/13 09:49:25;;;;;;;1.80;1.70;;;;;;;20.02;63.12;95630.91;5049872;28;20021;-71
2023/05/13 09:51:51;;;;;;;1.80;1.70;;;;;;;20.58;61.94;95631.53;5053851;28;20381;-71
2023/05/13 09:54:16;;;;;;;1.27;1.20;;;;;;;21.11;57.57;95634.38;5053918;28;20017;-72
2023/05/13 09:56:41;;;;;;;1.45;1.40;;;;;;;20.09;57.04;95638.09;5058743;28;20025;-72
2023/05/13 09:59:07;;;;;;;1.80;1.70;;;;;;;18.61;63.75;95631.00;5055048;28;20021;-73
2023/05/13 10:01:34;;;;;;;1.80;1.70;;;;;;;18.18;65.36;95634.56;5054263;28;20501;-73
2023/05/13 10:04:00;;;;;;;1.83;1.60;;;;;;;18.56;67.62;95638.78;5043929;28;20029;-71
2023/05/13 10:06:28;;;;;;;1.20;1.20;;;;;;;18.01;66.76;95639.31;5050091;28;20051;-72
2023/05/13 10:08:58;;;;;;;1.30;1.30;;;;;;;17.87;68.37;95646.31;5049724;28;20037;-72
2023/05/13 10:11:26;;;;;;;3.25;1.42;;;;;;;17.87;66.15;95638.31;5042620;28;20074;-72
2023/05/13 10:13:59;;;;;;;1.17;1.10;;;;;;;17.10;67.41;95643.16;5050118;28;20252;-72
2023/05/13 10:16:27;;;;;;;1.58;1.58;;;;;;;16.55;69.21;95643.38;5054437;28;20021;-72
2023/05/13 10:18:55;;;;;;;3.50;1.00;;;;;;;16.59;64.28;95636.69;5053203;28;20088;-72
2023/05/13 10:21:20;;;;;;;0.98;0.98;;;;;;;16.70;62.76;95638.06;5054600;28;20486;-71
2023/05/13 10:23:47;;;;;;;0.90;0.90;;;;;;;16.94;62.39;95638.00;5046932;28;20043;-70
2023/05/13 10:26:13;;;;;;;2.20;1.48;;;;;;;16.69;64.19;95635.59;5053578;28;20025;-73
2023/05/13 10:28:39;;;;;;;2.20;2.00;;;;;;;16.85;62.17;95638.06;5052744;28;20477;-70
2023/05/13 10:31:05;;;;;;;1.77;1.52;;;;;;;16.75;60.68;95637.53;5068869;28;20029;-71
2023/05/13 10:33:30;;;;;;;1.77;1.67;;;;;;;16.09;64.69;95630.97;5050326;28;20029;-71
2023/05/13 10:36:18;;;;;;;1.38;1.35;;;;;;;16.41;62.12;95633.53;5047236;28;20474;-71
2023/05/13 10:39:16;;;;;;;1.20;1.20;;;;;;;15.84;65.35;95623.16;5047804;28;20385;-71
2023/05/13 10:42:06;;;;;;;1.27;1.20;;;;;;;15.99;66.15;95625.09;5051324;28;20044;-70
2023/05/13 10:44:34;;;;;;;1.30;1.20;;;;;;;16.21;64.95;95627.91;5048082;28;20032;-71
2023/05/13 10:47:01;;;;;;;1.27;1.20;;;;;;;15.87;64.33;95622.78;5051550;28;20036;-71
2023/05/13 10:49:32;;;;;;;1.10;1.05;;;;;;;16.20;60.22;95628.91;5049842;28;20024;-69
2023/05/13 10:52:06;;;;;;;0.85;0.85;;;;;;;16.50;60.25;95621.00;5052696;28;20025;-70
2023/05/13 10:54:40;;;;;;;1.10;1.10;;;;;;;16.22;64.23;95619.75;5052178;28;20391;-71
2023/05/13 10:57:07;;;;;;;1.20;1.20;;;;;;;16.72;59.76;95613.97;5052465;28;20398;-71
2023/05/13 10:59:34;;;;;;;1.20;1.20;;;;;;;16.75;61.96;95613.63;5049432;28;20029;-70
2023/05/13 11:02:02;;;;;;;3.00;1.48;;;;;;;17.03;57.33;95613.00;5049279;28;20032;-70
2023/05/13 11:04:28;;;;;;;1.60;1.50;;;;;;;17.16;59.14;95618.50;5050530;28;20040;-70
2023/05/13 11:06:53;;;;;;;1.85;1.73;;;;;;;17.33;55.97;95618.28;5050717;28;20017;-72
2023/05/13 11:09:22;;;;;;;5.18;1.63;;;;;;;17.26;54.80;95623.53;5034617;28;20036;-73
2023/05/13 11:11:51;;;;;;;0.90;0.90;;;;;;;16.81;55.94;95617.38;5052495;28;20039;-71
2023/05/13 11:14:19;;;;;;;1.08;1.08;;;;;;;17.01;57.21;95613.16;5051107;28;20111;-71
2023/05/13 11:16:52;;;;;;;1.25;1.23;;;;;;;16.58;57.94;95615.63;5050411;28;20510;-69
2023/05/13 11:19:24;;;;;;;0.93;0.93;;;;;;;16.49;57.52;95619.34;5048988;28;20029;-70
2023/05/13 11:21:53;;;;;;;1.27;1.20;;;;;;;16.27;58.63;95605.94;5052959;28;20029;-70
2023/05/13 11:24:20;;;;;;;1.27;1.17;;;;;;;16.56;56.91;95610.47;5052028;28;20049;-71
2023/05/13 11:26:55;;;;;;;1.13;1.10;;;;;;;16.43;58.30;95605.78;5052648;28;20028;-70
2023/05/13 11:29:34;;;;;;;1.40;1.40;;;;;;;16.12;59.92;95603.25;5052704;28;20389;-70